Time;durP1;ratioP1;P1;durP2;ratioP2;P2;SDS_P1;SDS_P2;PMS_P1;PMS_P2;Temp;Humidity;BMP_temperature;BMP_pressure;BME280_temperature;BME280_humidity;BME280_pressure;Samples;Min_cycle;Max_cycle;Signal;HPM_P1;HPM_P2
2024/02/23 00:00:42;;;;;;;0.87;0.70;;;18.80;57.40;;;;;;5075857;28;20461;-79
2024/02/23 00:03:25;;;;;;;1.47;0.90;;;18.80;57.30;;;;;;5076019;28;20442;-79
2024/02/23 00:05:53;;;;;;;0.70;0.70;;;18.80;57.50;;;;;;5073103;28;20426;-78
2024/02/23 00:08:23;;;;;;;0.90;0.70;;;18.80;57.60;;;;;;5074460;28;20560;-78
2024/02/23 00:10:51;;;;;;;1.70;0.97;;;18.70;57.70;;;;;;5076340;28;20488;-79
2024/02/23 00:13:19;;;;;;;0.90;0.73;;;18.70;57.60;;;;;;5073754;28;20524;-79
2024/02/23 00:15:47;;;;;;;1.23;0.90;;;18.70;58.00;;;;;;5076219;28;20481;-81
2024/02/23 00:18:16;;;;;;;1.03;0.93;;;18.70;58.10;;;;;;5074712;28;20465;-79
2024/02/23 00:20:45;;;;;;;0.70;0.70;;;18.70;58.10;;;;;;5074561;28;20461;-78
2024/02/23 00:23:13;;;;;;;0.97;0.77;;;18.70;58.30;;;;;;5075549;28;20441;-79
2024/02/23 00:25:42;;;;;;;0.97;0.87;;;18.60;58.40;;;;;;5075306;28;20436;-79
2024/02/23 00:28:10;;;;;;;0.80;0.70;;;18.60;58.30;;;;;;5073780;28;20458;-79
2024/02/23 00:30:38;;;;;;;1.13;0.90;;;18.60;58.60;;;;;;5074083;28;20525;-79
2024/02/23 00:33:06;;;;;;;2.23;0.83;;;18.60;58.60;;;;;;5076259;28;20453;-79
2024/02/23 00:35:34;;;;;;;1.90;1.03;;;18.50;58.60;;;;;;5069426;28;20450;-79
2024/02/23 00:38:02;;;;;;;0.90;0.90;;;18.50;58.90;;;;;;5077368;28;20460;-79
2024/02/23 00:40:31;;;;;;;0.93;0.90;;;18.50;58.90;;;;;;5065153;28;20463;-78
2024/02/23 00:43:01;;;;;;;0.80;0.70;;;18.50;59.00;;;;;;5072064;28;20487;-79
2024/02/23 00:45:28;;;;;;;1.20;1.10;;;18.40;59.00;;;;;;5070475;28;20508;-78
2024/02/23 00:47:56;;;;;;;0.80;0.80;;;18.50;59.10;;;;;;5078776;22;20521;-79
2024/02/23 00:50:26;;;;;;;0.90;0.90;;;18.40;59.10;;;;;;5057854;28;20561;-79
2024/02/23 00:52:54;;;;;;;1.73;0.93;;;18.40;59.10;;;;;;5057315;28;20435;-79
2024/02/23 00:55:22;;;;;;;1.17;0.90;;;18.30;59.20;;;;;;5057280;28;21038;-79
2024/02/23 00:57:50;;;;;;;1.07;1.00;;;18.30;59.10;;;;;;5066592;28;20464;-79
2024/02/23 01:00:20;;;;;;;1.07;0.97;;;18.20;58.90;;;;;;5076927;28;20461;-79
2024/02/23 01:02:47;;;;;;;2.10;0.90;;;18.20;59.00;;;;;;5076903;28;20433;-79
2024/02/23 01:05:16;;;;;;;0.90;0.90;;;18.10;58.90;;;;;;5066064;28;20536;-79
2024/02/23 01:07:44;;;;;;;0.87;0.87;;;18.10;59.00;;;;;;5077551;28;20493;-79
2024/02/23 01:10:12;;;;;;;3.13;1.03;;;18.10;59.20;;;;;;5077329;28;20472;-79
2024/02/23 01:12:40;;;;;;;0.90;0.90;;;18.10;59.10;;;;;;5068367;28;20480;-79
2024/02/23 01:15:09;;;;;;;1.37;1.00;;;18.00;59.00;;;;;;5078500;28;20456;-80
2024/02/23 01:17:38;;;;;;;2.03;1.10;;;18.00;59.10;;;;;;5078778;28;20510;-79
2024/02/23 01:20:08;;;;;;;1.20;1.10;;;18.00;58.90;;;;;;5078769;28;20421;-80
2024/02/23 01:22:36;;;;;;;1.40;1.30;;;18.00;59.10;;;;;;5076150;28;20515;-79
2024/02/23 01:25:05;;;;;;;1.70;1.60;;;17.90;58.90;;;;;;5072448;28;20480;-79
2024/02/23 01:27:33;;;;;;;1.50;1.40;;;17.90;59.10;;;;;;5077221;28;20496;-79
2024/02/23 01:30:01;;;;;;;2.60;1.53;;;17.90;59.10;;;;;;5077909;28;20473;-79
2024/02/23 01:32:29;;;;;;;1.73;1.63;;;17.80;59.20;;;;;;5070086;28;20479;-79
2024/02/23 01:34:59;;;;;;;1.90;1.70;;;17.90;59.30;;;;;;5077762;28;20448;-79
2024/02/23 01:37:27;;;;;;;2.20;2.00;;;17.80;59.30;;;;;;5077882;28;20457;-79
2024/02/23 01:39:55;;;;;;;3.37;2.10;;;17.80;59.30;;;;;;5074883;28;20484;-79
2024/02/23 01:42:23;;;;;;;2.10;2.00;;;17.80;59.40;;;;;;5076489;28;20528;-80
2024/02/23 01:44:52;;;;;;;2.83;2.17;;;17.80;59.50;;;;;;5076910;28;20479;-79
2024/02/23 01:47:20;;;;;;;2.60;2.00;;;17.70;59.50;;;;;;5078217;28;20516;-79
2024/02/23 01:49:48;;;;;;;2.20;2.00;;;17.70;59.50;;;;;;5084856;28;20473;-79
2024/02/23 01:52:17;;;;;;;2.40;2.20;;;17.70;59.40;;;;;;5085319;28;20442;-79
2024/02/23 01:54:46;;;;;;;2.40;2.20;;;17.70;59.70;;;;;;5078174;28;20509;-79
2024/02/23 01:57:14;;;;;;;2.57;2.37;;;17.70;59.70;;;;;;5069687;28;20525;-79
2024/02/23 02:00:02;;;;;;;2.43;2.23;;;17.70;59.50;;;;;;5077461;28;20437;-79
2024/02/23 02:02:31;;;;;;;2.37;2.17;;;17.60;59.60;;;;;;5072667;28;20450;-79
2024/02/23 02:04:59;;;;;;;2.50;2.30;;;17.60;59.70;;;;;;5077403;28;20457;-79
2024/02/23 02:07:28;;;;;;;1.97;1.87;;;17.60;59.40;;;;;;5068577;28;20514;-79
2024/02/23 02:09:56;;;;;;;2.43;2.23;;;17.50;59.60;;;;;;5077644;28;20466;-79
2024/02/23 02:12:28;;;;;;;1.93;1.80;;;17.50;59.60;;;;;;5076145;28;20481;-79
2024/02/23 02:14:56;;;;;;;2.50;2.30;;;17.50;59.50;;;;;;5071623;28;20446;-79
2024/02/23 02:17:24;;;;;;;2.10;1.90;;;17.50;59.40;;;;;;5077779;28;20488;-80
2024/02/23 02:19:52;;;;;;;2.60;1.97;;;17.40;59.40;;;;;;5075019;28;20499;-79
2024/02/23 02:22:20;;;;;;;2.10;2.00;;;17.40;59.50;;;;;;5076405;28;20480;-79
2024/02/23 02:24:50;;;;;;;7.20;1.70;;;17.40;59.40;;;;;;5072297;28;20536;-79
2024/02/23 02:27:18;;;;;;;1.80;1.70;;;17.40;59.40;;;;;;5077329;28;20491;-79
2024/02/23 02:29:46;;;;;;;4.00;2.17;;;17.40;59.60;;;;;;5078086;28;20465;-79
2024/02/23 02:32:14;;;;;;;2.03;1.93;;;17.40;59.60;;;;;;5067890;28;20450;-78
2024/02/23 02:34:42;;;;;;;2.20;2.00;;;17.30;59.40;;;;;;5070113;28;20444;-79
2024/02/23 02:37:10;;;;;;;2.50;2.00;;;17.30;59.60;;;;;;5076593;28;20487;-78
2024/02/23 02:39:38;;;;;;;1.83;1.73;;;17.30;59.50;;;;;;5067781;28;20540;-78
2024/02/23 02:42:08;;;;;;;1.67;1.57;;;17.20;59.70;;;;;;5074970;28;20477;-78
2024/02/23 02:44:36;;;;;;;2.20;2.00;;;17.30;59.70;;;;;;5072997;28;20450;-78
2024/02/23 02:47:05;;;;;;;1.70;1.60;;;17.20;59.50;;;;;;5070711;28;20487;-78
2024/02/23 02:49:33;;;;;;;1.90;1.80;;;17.20;59.60;;;;;;5060069;28;20534;-79
2024/02/23 02:52:01;;;;;;;2.10;1.77;;;17.20;59.80;;;;;;5075833;28;20446;-78
2024/02/23 02:54:29;;;;;;;2.00;1.90;;;17.20;59.60;;;;;;5074230;28;20442;-79
2024/02/23 02:56:58;;;;;;;1.63;1.47;;;17.20;60.00;;;;;;5075268;28;20473;-79
2024/02/23 02:59:28;;;;;;;2.93;1.80;;;17.20;59.80;;;;;;5072025;28;20488;-79
2024/02/23 03:01:57;;;;;;;1.93;1.80;;;17.20;60.00;;;;;;5069990;28;20461;-79
2024/02/23 03:04:25;;;;;;;1.80;1.70;;;17.20;60.10;;;;;;5066967;28;20442;-79
2024/02/23 03:06:53;;;;;;;1.60;1.50;;;17.20;60.00;;;;;;5082821;28;20503;-79
2024/02/23 03:09:21;;;;;;;1.77;1.67;;;17.20;60.00;;;;;;5084712;28;20446;-79
2024/02/23 03:11:49;;;;;;;2.80;1.80;;;17.10;59.90;;;;;;5086829;28;20854;-78
2024/02/23 03:14:20;;;;;;;1.60;1.40;;;17.20;60.10;;;;;;5072087;28;20445;-79
2024/02/23 03:16:50;;;;;;;2.00;1.20;;;17.10;59.90;;;;;;5076763;28;20457;-79
2024/02/23 03:19:22;;;;;;;1.63;1.53;;;17.20;59.90;;;;;;5057780;28;20891;-79
2024/02/23 03:21:50;;;;;;;1.80;1.20;;;17.10;60.00;;;;;;5076564;28;20441;-78
2024/02/23 03:24:19;;;;;;;1.93;1.70;;;17.10;60.00;;;;;;5076591;28;20532;-79
2024/02/23 03:26:46;;;;;;;1.93;1.83;;;17.10;59.80;;;;;;5075602;28;20450;-79
2024/02/23 03:29:15;;;;;;;1.60;1.50;;;17.10;59.90;;;;;;5086634;28;20498;-79
2024/02/23 03:31:43;;;;;;;1.70;1.60;;;17.10;59.80;;;;;;5092494;28;20477;-78
2024/02/23 03:34:13;;;;;;;2.03;1.30;;;17.00;59.80;;;;;;5080783;28;20491;-79
2024/02/23 03:36:42;;;;;;;1.83;1.20;;;17.00;60.00;;;;;;5079558;28;20446;-79
2024/02/23 03:39:10;;;;;;;1.67;1.37;;;17.00;60.00;;;;;;5078523;28;20508;-79
2024/02/23 03:41:38;;;;;;;9.10;1.60;;;17.00;59.80;;;;;;5075023;28;20520;-79
2024/02/23 03:44:06;;;;;;;2.20;1.50;;;17.00;59.90;;;;;;5083650;28;20448;-79
2024/02/23 03:46:34;;;;;;;1.63;1.13;;;17.00;59.80;;;;;;5074311;28;20431;-78
2024/02/23 03:49:02;;;;;;;2.50;1.73;;;16.90;59.40;;;;;;5074094;28;20515;-78
2024/02/23 03:51:32;;;;;;;1.70;1.60;;;16.90;59.60;;;;;;5074983;28;20481;-78
2024/02/23 03:53:59;;;;;;;1.90;1.47;;;16.90;59.80;;;;;;5068341;28;20548;-78
2024/02/23 03:56:27;;;;;;;1.83;1.70;;;16.90;59.70;;;;;;5074720;28;20483;-78
2024/02/23 03:58:55;;;;;;;2.80;1.30;;;16.80;59.40;;;;;;5076439;28;20532;-78
2024/02/23 04:01:23;;;;;;;1.97;1.50;;;16.80;59.30;;;;;;5081508;28;20438;-78
2024/02/23 04:03:51;;;;;;;1.53;1.30;;;16.80;59.60;;;;;;5082494;28;20438;-78
2024/02/23 04:06:19;;;;;;;2.50;1.30;;;16.80;59.50;;;;;;5074570;28;20450;-78
2024/02/23 04:08:48;;;;;;;2.40;1.30;;;16.80;59.60;;;;;;5072107;28;20484;-78
2024/02/23 04:11:17;;;;;;;2.73;1.47;;;16.80;59.60;;;;;;5066940;28;20461;-79
2024/02/23 04:13:46;;;;;;;2.03;1.10;;;16.80;59.90;;;;;;5058004;28;20443;-78
2024/02/23 04:16:18;;;;;;;1.63;1.30;;;16.80;59.40;;;;;;5074906;28;20454;-78
2024/02/23 04:18:46;;;;;;;1.57;1.20;;;16.80;59.20;;;;;;5075042;28;20577;-79
2024/02/23 04:21:15;;;;;;;1.67;1.53;;;16.80;59.20;;;;;;5073708;28;20940;-79
2024/02/23 04:23:44;;;;;;;5.07;1.20;;;16.80;59.00;;;;;;5081801;28;20445;-78
2024/02/23 04:26:14;;;;;;;1.30;1.20;;;16.70;59.10;;;;;;5070142;28;20507;-78
2024/02/23 04:28:42;;;;;;;3.17;1.27;;;16.70;59.20;;;;;;5074109;28;20461;-77
2024/02/23 04:31:10;;;;;;;3.50;1.37;;;16.70;59.10;;;;;;5068683;28;20466;-78
2024/02/23 04:33:38;;;;;;;1.70;1.20;;;16.70;59.10;;;;;;5074366;28;20536;-77
2024/02/23 04:36:07;;;;;;;2.80;1.00;;;16.70;59.20;;;;;;5072349;28;20452;-78
2024/02/23 04:38:35;;;;;;;1.53;1.00;;;16.60;58.90;;;;;;5073881;28;20462;-78
2024/02/23 04:41:05;;;;;;;1.07;0.97;;;16.60;59.00;;;;;;5072485;28;20525;-78
2024/02/23 04:43:37;;;;;;;2.43;1.20;;;16.60;58.90;;;;;;5072728;28;20441;-78
2024/02/23 04:46:05;;;;;;;1.20;1.10;;;16.60;59.00;;;;;;5069089;28;20528;-78
2024/02/23 04:48:33;;;;;;;4.00;1.50;;;16.60;59.00;;;;;;5067274;28;20476;-78
2024/02/23 04:51:01;;;;;;;1.60;1.07;;;16.60;59.00;;;;;;5059620;28;20561;-77
2024/02/23 04:53:29;;;;;;;2.07;1.50;;;16.60;59.10;;;;;;5064732;28;20438;-78
2024/02/23 04:55:57;;;;;;;2.30;1.20;;;16.60;59.00;;;;;;5070051;28;20516;-78
2024/02/23 04:58:25;;;;;;;0.97;0.87;;;16.60;58.70;;;;;;5069637;28;20914;-78
2024/02/23 05:00:55;;;;;;;1.43;0.87;;;16.50;58.90;;;;;;5074250;28;20468;-79
2024/02/23 05:03:23;;;;;;;0.90;0.90;;;16.60;59.00;;;;;;5072826;28;20509;-79
2024/02/23 05:05:53;;;;;;;0.90;0.87;;;16.50;59.00;;;;;;5055604;28;20438;-79
2024/02/23 05:08:23;;;;;;;1.07;0.97;;;16.50;59.20;;;;;;5072370;28;20480;-80
2024/02/23 05:10:52;;;;;;;1.17;1.07;;;16.50;58.90;;;;;;5070572;28;20466;-77
2024/02/23 05:13:20;;;;;;;1.17;1.07;;;16.50;59.00;;;;;;5068764;28;20442;-78
2024/02/23 05:15:48;;;;;;;1.63;1.17;;;16.50;59.00;;;;;;5074246;28;20468;-78
2024/02/23 05:18:18;;;;;;;1.37;1.20;;;16.50;59.20;;;;;;5067662;28;20469;-78
2024/02/23 05:20:46;;;;;;;2.40;1.20;;;16.50;59.10;;;;;;5066483;28;20465;-77
2024/02/23 05:23:15;;;;;;;1.37;1.27;;;16.40;58.80;;;;;;5068111;28;20530;-78
2024/02/23 05:25:43;;;;;;;2.30;1.10;;;16.40;58.90;;;;;;5062066;28;20449;-77
2024/02/23 05:28:11;;;;;;;2.07;1.00;;;16.40;59.20;;;;;;5065668;28;20533;-77
2024/02/23 05:30:39;;;;;;;1.93;0.97;;;16.40;59.00;;;;;;5069724;28;20495;-77
2024/02/23 05:33:08;;;;;;;1.17;1.07;;;16.40;59.20;;;;;;5073361;28;20508;-78
2024/02/23 05:35:37;;;;;;;1.20;1.10;;;16.40;59.10;;;;;;5074695;28;20442;-78
2024/02/23 05:38:06;;;;;;;1.30;1.20;;;16.40;59.10;;;;;;5076207;28;20454;-77
2024/02/23 05:40:33;;;;;;;1.23;1.13;;;16.40;59.20;;;;;;5074088;28;20524;-78
2024/02/23 05:43:02;;;;;;;1.20;1.10;;;16.40;59.40;;;;;;5065414;28;20500;-78
2024/02/23 05:45:30;;;;;;;2.07;1.17;;;16.40;59.20;;;;;;5073107;28;20494;-77
2024/02/23 05:47:57;;;;;;;1.10;1.10;;;16.30;58.80;;;;;;5071382;28;20584;-77
2024/02/23 05:50:26;;;;;;;1.20;1.20;;;16.30;59.00;;;;;;5076424;28;20446;-77
2024/02/23 05:52:55;;;;;;;1.67;1.37;;;16.40;59.00;;;;;;5074608;28;20618;-78
2024/02/23 05:55:24;;;;;;;2.00;1.07;;;16.30;58.90;;;;;;5065160;28;20448;-77
2024/02/23 05:57:52;;;;;;;1.50;1.40;;;16.30;58.90;;;;;;5074407;28;20518;-77
2024/02/23 06:00:21;;;;;;;1.50;1.40;;;16.30;58.90;;;;;;5061890;28;20475;-77
2024/02/23 06:02:49;;;;;;;2.80;1.37;;;16.30;58.90;;;;;;5070194;28;20442;-77
2024/02/23 06:05:18;;;;;;;3.27;1.57;;;16.30;58.70;;;;;;5062738;28;20442;-77
2024/02/23 06:07:47;;;;;;;1.77;1.50;;;16.30;58.80;;;;;;5075236;28;20515;-78
2024/02/23 06:10:16;;;;;;;1.70;1.60;;;16.30;58.80;;;;;;5072135;28;20434;-77
2024/02/23 06:12:44;;;;;;;1.37;1.30;;;16.30;58.90;;;;;;5072881;28;20458;-77
2024/02/23 06:15:12;;;;;;;2.67;1.37;;;16.20;58.80;;;;;;5060430;28;20517;-77
2024/02/23 06:17:41;;;;;;;1.30;1.20;;;16.30;58.90;;;;;;5076162;28;20540;-77
2024/02/23 06:20:10;;;;;;;2.40;1.47;;;16.20;59.00;;;;;;5075958;28;20437;-77
2024/02/23 06:22:38;;;;;;;3.90;1.53;;;16.20;59.10;;;;;;5071530;28;20488;-77
2024/02/23 06:25:06;;;;;;;2.27;1.63;;;16.20;59.10;;;;;;5076352;28;20469;-78
2024/02/23 06:27:36;;;;;;;1.70;1.30;;;16.20;59.10;;;;;;5074925;28;21011;-77
2024/02/23 06:30:05;;;;;;;1.60;1.50;;;16.30;59.20;;;;;;5075236;28;20438;-77
2024/02/23 06:32:33;;;;;;;2.60;1.80;;;16.20;59.30;;;;;;5074772;28;20469;-77
2024/02/23 06:35:02;;;;;;;3.37;1.40;;;16.20;59.30;;;;;;5075165;28;20517;-77
2024/02/23 06:37:30;;;;;;;1.63;1.53;;;16.20;59.40;;;;;;5075352;28;20472;-77
2024/02/23 06:39:59;;;;;;;2.20;1.40;;;16.20;59.40;;;;;;5075321;28;20450;-77
2024/02/23 06:42:28;;;;;;;5.77;1.60;;;16.20;59.30;;;;;;5075160;28;20477;-78
2024/02/23 06:44:59;;;;;;;1.60;1.50;;;16.20;59.20;;;;;;5074554;28;20449;-78
2024/02/23 06:47:27;;;;;;;1.90;1.50;;;16.20;59.30;;;;;;5094761;22;20505;-78
2024/02/23 06:49:55;;;;;;;1.60;1.50;;;16.20;59.10;;;;;;5059775;28;20437;-81
2024/02/23 06:52:23;;;;;;;1.50;1.40;;;16.10;59.30;;;;;;5057044;28;20462;-79
2024/02/23 06:54:51;;;;;;;2.23;2.00;;;16.20;59.30;;;;;;5053012;28;20509;-79
2024/02/23 06:57:19;;;;;;;2.17;1.70;;;16.20;59.20;;;;;;5064690;28;20556;-80
2024/02/23 06:59:47;;;;;;;3.27;1.90;;;16.20;59.20;;;;;;5081184;28;20449;-80
2024/02/23 07:02:17;;;;;;;3.73;1.57;;;16.20;59.30;;;;;;5081682;28;20457;-80
2024/02/23 07:04:45;;;;;;;1.70;1.57;;;16.30;59.50;;;;;;5083188;28;20422;-79
2024/02/23 07:07:13;;;;;;;1.57;1.47;;;16.30;59.30;;;;;;5076612;28;20470;-79
2024/02/23 07:09:41;;;;;;;2.13;1.50;;;16.30;59.30;;;;;;5077510;28;20444;-79
2024/02/23 07:12:11;;;;;;;4.03;1.77;;;16.30;59.40;;;;;;5081036;28;20467;-79
2024/02/23 07:14:39;;;;;;;3.30;1.93;;;16.30;59.90;;;;;;5079461;28;20445;-79
2024/02/23 07:17:08;;;;;;;2.80;1.73;;;16.30;59.30;;;;;;5079254;28;20521;-79
2024/02/23 07:19:38;;;;;;;2.23;1.50;;;16.40;59.20;;;;;;5079887;28;20455;-79
2024/02/23 07:22:06;;;;;;;1.87;1.77;;;16.30;59.20;;;;;;5080671;28;20445;-80
2024/02/23 07:24:34;;;;;;;1.63;1.53;;;16.30;59.20;;;;;;5079925;28;20535;-80
2024/02/23 07:27:02;;;;;;;3.00;1.83;;;16.40;59.40;;;;;;5081311;28;20484;-78
2024/02/23 07:29:30;;;;;;;1.50;1.40;;;16.40;59.50;;;;;;5081402;28;20441;-79
2024/02/23 07:31:59;;;;;;;2.00;1.80;;;16.40;59.30;;;;;;5081453;28;20859;-80
2024/02/23 07:34:27;;;;;;;1.47;1.37;;;16.40;59.30;;;;;;5078896;28;20791;-79
2024/02/23 07:36:56;;;;;;;3.57;1.80;;;16.40;59.20;;;;;;5078625;28;20422;-78
2024/02/23 07:39:24;;;;;;;4.90;1.97;;;16.40;59.20;;;;;;5080261;28;20442;-78
2024/02/23 07:41:52;;;;;;;2.30;1.57;;;16.50;59.40;;;;;;5081836;28;20492;-79
2024/02/23 07:44:21;;;;;;;4.50;1.53;;;16.50;59.20;;;;;;5080015;28;20442;-79
2024/02/23 07:46:49;;;;;;;2.33;1.40;;;16.50;59.30;;;;;;5079426;28;20495;-78
2024/02/23 07:49:17;;;;;;;5.23;1.60;;;16.60;59.40;;;;;;5079940;28;20469;-79
2024/02/23 07:51:45;;;;;;;2.67;1.80;;;16.50;59.20;;;;;;5081580;28;20442;-79
2024/02/23 07:54:15;;;;;;;5.10;1.93;;;16.60;59.30;;;;;;5082552;28;20469;-80
2024/02/23 07:56:43;;;;;;;4.20;1.80;;;16.60;59.30;;;;;;5084335;28;20445;-80
2024/02/23 07:59:11;;;;;;;2.80;1.73;;;16.70;59.40;;;;;;5084884;28;20488;-80
2024/02/23 08:01:40;;;;;;;3.07;1.40;;;16.70;59.40;;;;;;5084354;28;20453;-80
2024/02/23 08:04:08;;;;;;;1.73;1.40;;;16.80;59.60;;;;;;5086230;28;20430;-80
2024/02/23 08:06:36;;;;;;;2.20;1.33;;;16.90;59.50;;;;;;5083465;28;20441;-79
2024/02/23 08:09:04;;;;;;;2.07;1.83;;;16.90;59.70;;;;;;5081692;28;20485;-79
2024/02/23 08:11:33;;;;;;;3.33;1.67;;;16.90;59.80;;;;;;5080474;28;20434;-78
2024/02/23 08:14:04;;;;;;;2.07;1.87;;;17.00;59.80;;;;;;5080084;28;20472;-79
2024/02/23 08:16:32;;;;;;;2.10;1.70;;;17.10;60.00;;;;;;5069675;28;20435;-80
2024/02/23 08:19:01;;;;;;;2.53;1.77;;;17.20;60.00;;;;;;5063563;28;20500;-79
2024/02/23 08:21:28;;;;;;;3.60;1.50;;;17.20;59.70;;;;;;5074297;28;20435;-79
2024/02/23 08:23:56;;;;;;;3.00;1.83;;;17.30;59.90;;;;;;5067062;28;20439;-81
2024/02/23 08:26:24;;;;;;;3.47;1.83;;;17.40;59.90;;;;;;5065649;28;20443;-78
2024/02/23 08:28:54;;;;;;;4.60;1.70;;;17.50;60.20;;;;;;5072251;28;20470;-79
2024/02/23 08:31:22;;;;;;;1.60;1.50;;;17.60;60.00;;;;;;5072760;28;20438;-80
2024/02/23 08:33:50;;;;;;;2.20;1.73;;;17.60;60.30;;;;;;5080033;28;20465;-80
2024/02/23 08:36:18;;;;;;;1.90;1.80;;;17.70;60.60;;;;;;5078464;28;20452;-82
2024/02/23 08:38:46;;;;;;;1.40;1.30;;;17.80;60.90;;;;;;5080077;28;20496;-80
2024/02/23 08:41:14;;;;;;;4.70;1.60;;;17.80;60.90;;;;;;5078341;28;20438;-80
2024/02/23 08:43:45;;;;;;;6.10;1.70;;;18.00;61.40;;;;;;5078772;28;20495;-80
2024/02/23 08:46:14;;;;;;;2.40;2.07;;;18.10;61.20;;;;;;5063282;28;20438;-78
2024/02/23 08:48:42;;;;;;;4.17;1.90;;;18.10;61.20;;;;;;5057410;28;20466;-78
2024/02/23 08:51:11;;;;;;;2.67;1.43;;;18.30;61.50;;;;;;5060622;28;20500;-79
2024/02/23 08:53:39;;;;;;;5.23;1.90;;;18.40;61.60;;;;;;5060302;28;20528;-79
2024/02/23 08:56:07;;;;;;;2.50;1.77;;;18.60;61.70;;;;;;5061519;28;20447;-79
2024/02/23 08:58:35;;;;;;;3.70;1.60;;;18.70;61.90;;;;;;5061101;28;20467;-79
2024/02/23 09:01:05;;;;;;;2.43;1.53;;;18.90;61.80;;;;;;5068177;28;20477;-79
2024/02/23 09:03:34;;;;;;;5.57;1.43;;;19.00;61.80;;;;;;5076509;28;20484;-80
2024/02/23 09:06:03;;;;;;;2.03;1.53;;;19.10;61.70;;;;;;5072024;28;20441;-79
2024/02/23 09:08:32;;;;;;;2.73;1.40;;;19.20;61.50;;;;;;5080230;28;20461;-81
2024/02/23 09:11:03;;;;;;;4.13;1.47;;;19.20;61.20;;;;;;5076826;28;20918;-80
2024/02/23 09:13:32;;;;;;;1.63;1.20;;;19.20;61.20;;;;;;5080960;28;20498;-81
2024/02/23 09:16:02;;;;;;;2.67;1.70;;;19.20;61.20;;;;;;5086854;28;20437;-79
2024/02/23 09:18:30;;;;;;;1.83;1.30;;;19.20;61.00;;;;;;5095116;28;20436;-81
2024/02/23 09:21:00;;;;;;;3.13;1.60;;;19.20;61.20;;;;;;5087068;28;20441;-79
2024/02/23 09:23:29;;;;;;;4.07;1.60;;;19.10;61.20;;;;;;5073302;28;20426;-79
2024/02/23 09:25:57;;;;;;;3.00;1.43;;;19.10;61.30;;;;;;5084673;28;20446;-80
2024/02/23 09:28:25;;;;;;;5.50;1.60;;;19.10;61.40;;;;;;5078464;28;20465;-83
2024/02/23 09:30:53;;;;;;;2.50;1.53;;;19.00;61.30;;;;;;5087487;28;21031;-82
2024/02/23 09:33:28;;;;;;;3.10;1.40;;;19.10;61.50;;;;;;5084243;28;20469;-84
2024/02/23 09:35:56;;;;;;;6.00;1.77;;;19.10;60.90;;;;;;5085032;28;20481;-85
2024/02/23 09:38:36;;;;;;;1.30;1.20;;;19.20;60.20;;;;;;5081867;28;20465;-80
2024/02/23 09:41:06;;;;;;;8.90;1.80;;;19.10;60.10;;;;;;5082655;28;20465;-81
2024/02/23 09:43:34;;;;;;;2.03;1.20;;;19.10;59.60;;;;;;5082051;28;20433;-81
2024/02/23 09:46:02;;;;;;;3.93;1.43;;;19.00;59.30;;;;;;5071510;28;20469;-81
2024/02/23 09:48:33;;;;;;;3.67;1.40;;;19.00;59.10;;;;;;5083053;28;20465;-79
2024/02/23 09:51:01;;;;;;;4.83;1.50;;;18.90;58.90;;;;;;5088708;28;20425;-80
2024/02/23 09:53:31;;;;;;;2.23;1.70;;;18.90;58.60;;;;;;5093602;28;20433;-80
2024/02/23 09:56:02;;;;;;;1.80;1.30;;;18.90;58.30;;;;;;5080992;28;20454;-79
2024/02/23 09:58:30;;;;;;;4.97;1.17;;;18.90;57.80;;;;;;5088645;28;20510;-79
2024/02/23 10:01:02;;;;;;;2.07;1.17;;;18.90;57.50;;;;;;5086000;28;20454;-80
2024/02/23 10:03:31;;;;;;;3.57;1.30;;;18.90;57.30;;;;;;5083883;28;20449;-80
2024/02/23 10:06:01;;;;;;;4.23;1.53;;;18.90;56.90;;;;;;5081438;28;20472;-80
2024/02/23 10:08:31;;;;;;;3.37;1.23;;;18.80;56.50;;;;;;5084858;28;20481;-80
2024/02/23 10:10:59;;;;;;;3.27;1.30;;;18.70;56.00;;;;;;5088527;28;20434;-82
2024/02/23 10:13:27;;;;;;;1.63;1.00;;;18.70;55.80;;;;;;5095630;28;20516;-82
2024/02/23 10:15:55;;;;;;;3.40;1.30;;;18.70;55.70;;;;;;5081605;28;20583;-79
2024/02/23 10:18:41;;;;;;;5.03;1.97;;;18.70;55.40;;;;;;5074082;28;20528;-79
2024/02/23 10:21:12;;;;;;;5.00;1.60;;;18.60;55.30;;;;;;5079010;28;20441;-78
2024/02/23 10:23:41;;;;;;;3.10;1.10;;;18.60;55.00;;;;;;5077476;28;20437;-78
2024/02/23 10:26:09;;;;;;;1.63;0.97;;;18.50;54.70;;;;;;5076614;28;20444;-79
2024/02/23 10:28:39;;;;;;;2.23;1.07;;;18.50;54.60;;;;;;5059038;28;20454;-78
2024/02/23 10:31:07;;;;;;;3.13;1.40;;;18.50;54.40;;;;;;5075053;28;20465;-78
2024/02/23 10:33:40;;;;;;;2.43;1.30;;;18.50;54.20;;;;;;5064794;28;20439;-79
2024/02/23 10:36:11;;;;;;;1.37;1.00;;;18.50;54.00;;;;;;5075351;28;20499;-79
2024/02/23 10:38:41;;;;;;;3.47;1.67;;;18.50;53.80;;;;;;5076120;28;20488;-79
2024/02/23 10:41:09;;;;;;;6.63;1.43;;;18.50;53.70;;;;;;5080756;28;20532;-79
2024/02/23 10:48:02;;;;;;;;;;;;;;;;;;;;;
2024/02/23 10:50:58;;;;;;;3.60;1.63;;;18.50;53.00;;;;;;5080647;28;20442;-81
2024/02/23 10:53:32;;;;;;;1.73;1.60;;;18.50;52.80;;;;;;5083698;28;20452;-82
2024/02/23 10:56:01;;;;;;;2.70;1.40;;;18.40;52.70;;;;;;5086206;28;20519;-82
2024/02/23 10:58:29;;;;;;;2.23;1.40;;;18.50;52.70;;;;;;5081350;28;20453;-83
2024/02/23 11:01:02;;;;;;;4.73;1.50;;;18.50;52.50;;;;;;5080831;28;20505;-81
2024/02/23 11:03:34;;;;;;;3.80;1.30;;;18.50;52.40;;;;;;5079155;28;20448;-80
2024/02/23 11:06:10;;;;;;;4.20;1.77;;;18.40;52.10;;;;;;5068201;28;20442;-80
2024/02/23 11:08:40;;;;;;;3.20;1.43;;;18.40;51.70;;;;;;5073498;28;20477;-79
2024/02/23 11:11:19;;;;;;;4.37;1.87;;;18.40;51.60;;;;;;5077155;28;20422;-81
2024/02/23 11:13:50;;;;;;;2.93;1.47;;;18.40;51.40;;;;;;5079526;28;20472;-83
2024/02/23 11:16:23;;;;;;;2.30;1.77;;;18.40;51.40;;;;;;5080900;28;20473;-83
2024/02/23 11:18:51;;;;;;;5.80;1.87;;;18.40;51.20;;;;;;5080890;28;20476;-82
2024/02/23 11:21:19;;;;;;;4.90;1.73;;;18.40;50.90;;;;;;5078149;28;20452;-82
2024/02/23 11:23:52;;;;;;;4.43;1.57;;;18.40;51.00;;;;;;5079362;28;20450;-82
2024/02/23 11:26:25;;;;;;;6.40;2.13;;;18.40;50.70;;;;;;5071185;28;20446;-79
2024/02/23 11:28:55;;;;;;;2.10;1.63;;;18.40;50.50;;;;;;5076721;28;20476;-80
2024/02/23 11:31:26;;;;;;;3.33;1.57;;;18.40;50.40;;;;;;5075904;28;20464;-78
2024/02/23 11:33:55;;;;;;;3.13;1.73;;;18.40;50.30;;;;;;5080043;28;20446;-78
2024/02/23 11:36:23;;;;;;;2.50;1.63;;;18.40;50.30;;;;;;5079423;28;20473;-79
2024/02/23 11:38:53;;;;;;;3.23;1.67;;;18.40;50.40;;;;;;5089885;28;20453;-79
2024/02/23 11:41:24;;;;;;;7.17;1.77;;;18.30;50.40;;;;;;5093740;28;20536;-80
2024/02/23 11:43:53;;;;;;;1.97;1.73;;;18.30;50.30;;;;;;5090420;28;20454;-81
2024/02/23 11:46:21;;;;;;;2.83;1.93;;;18.30;50.30;;;;;;5080270;28;20449;-82
2024/02/23 11:48:53;;;;;;;2.80;2.00;;;18.30;50.30;;;;;;5079122;28;20527;-81
2024/02/23 11:51:22;;;;;;;5.20;1.80;;;18.20;50.10;;;;;;5081202;28;20434;-80
2024/02/23 11:53:50;;;;;;;3.90;2.00;;;18.20;50.30;;;;;;5079170;28;20448;-82
2024/02/23 11:56:22;;;;;;;2.23;1.90;;;18.20;50.40;;;;;;5083832;28;20460;-81
2024/02/23 11:58:52;;;;;;;4.57;1.63;;;18.10;50.20;;;;;;5080730;28;20476;-84
2024/02/23 12:01:20;;;;;;;2.67;2.10;;;18.10;50.80;;;;;;5061415;28;20449;-84
2024/02/23 12:03:49;;;;;;;3.77;2.20;;;18.10;51.00;;;;;;5060119;28;20472;-80
2024/02/23 12:06:20;;;;;;;5.30;1.90;;;18.10;50.40;;;;;;5058709;28;20488;-80
2024/02/23 12:08:49;;;;;;;3.97;2.10;;;18.10;50.40;;;;;;5058124;28;20549;-81
2024/02/23 12:11:17;;;;;;;8.10;2.60;;;18.10;50.50;;;;;;5058967;28;20439;-83
2024/02/23 12:13:46;;;;;;;2.80;1.87;;;18.10;50.20;;;;;;5063134;28;20438;-83
2024/02/23 12:16:16;;;;;;;2.13;1.90;;;18.10;50.40;;;;;;5061947;28;20481;-80
2024/02/23 12:18:44;;;;;;;3.90;1.80;;;18.10;50.30;;;;;;5055592;28;20477;-80
2024/02/23 12:21:13;;;;;;;2.07;1.90;;;18.10;50.50;;;;;;5056321;28;20454;-80
2024/02/23 12:23:44;;;;;;;2.23;2.03;;;18.20;50.40;;;;;;5058360;28;20520;-82
2024/02/23 12:26:14;;;;;;;1.67;1.57;;;18.30;50.10;;;;;;5056480;28;20431;-78
2024/02/23 12:28:42;;;;;;;2.30;1.67;;;18.40;50.00;;;;;;5054669;28;20428;-79
2024/02/23 12:31:27;;;;;;;1.93;1.70;;;18.50;50.10;;;;;;5054355;28;20461;-78
2024/02/23 12:33:59;;;;;;;3.10;2.00;;;18.60;49.80;;;;;;5055392;28;20457;-79
2024/02/23 12:36:35;;;;;;;4.57;2.03;;;18.90;49.90;;;;;;5054683;28;20542;-80
2024/02/23 12:39:03;;;;;;;4.70;2.30;;;19.70;51.70;;;;;;5057446;28;20469;-80
2024/02/23 12:41:31;;;;;;;3.07;2.10;;;21.70;51.00;;;;;;5058520;28;20426;-81
2024/02/23 12:44:00;;;;;;;2.07;1.57;;;22.90;47.40;;;;;;5058518;28;20424;-81
2024/02/23 12:46:30;;;;;;;2.40;1.80;;;23.70;46.20;;;;;;5056439;28;20947;-79
2024/02/23 12:49:05;;;;;;;4.07;1.73;;;24.30;44.50;;;;;;5055964;28;20996;-79
2024/02/23 12:51:39;;;;;;;1.67;1.40;;;24.60;42.10;;;;;;5056450;28;20533;-79
2024/02/23 12:54:07;;;;;;;2.57;1.60;;;24.60;42.40;;;;;;5056875;28;20421;-79
2024/02/23 12:56:35;;;;;;;3.67;1.50;;;24.40;41.90;;;;;;5056198;28;20537;-79
2024/02/23 12:59:04;;;;;;;2.70;1.90;;;24.00;41.20;;;;;;5063811;28;20432;-78
2024/02/23 13:01:37;;;;;;;5.63;1.60;;;23.70;42.00;;;;;;5072811;28;20445;-81